sensor_id;sensor_type;location;lat;lon;timestamp;P1;durP1;ratioP1;P2;durP2;ratioP2
69565;SDS011;56777;55.930;37.524;2024-01-25T00:01:45;12.10;;;4.82;;
69565;SDS011;56777;55.930;37.524;2024-01-25T00:04:10;12.07;;;5.70;;
69565;SDS011;56777;55.930;37.524;2024-01-25T00:06:36;16.50;;;5.70;;
69565;SDS011;56777;55.930;37.524;2024-01-25T00:09:02;12.55;;;5.30;;
69565;SDS011;56777;55.930;37.524;2024-01-25T00:11:29;12.60;;;5.03;;
69565;SDS011;56777;55.930;37.524;2024-01-25T00:13:56;12.35;;;4.68;;
69565;SDS011;56777;55.930;37.524;2024-01-25T00:16:22;13.75;;;5.60;;
69565;SDS011;56777;55.930;37.524;2024-01-25T00:18:48;12.98;;;5.22;;
69565;SDS011;56777;55.930;37.524;2024-01-25T00:21:13;10.65;;;5.22;;
69565;SDS011;56777;55.930;37.524;2024-01-25T00:23:39;12.32;;;4.93;;
69565;SDS011;56777;55.930;37.524;2024-01-25T00:26:04;16.05;;;5.18;;
69565;SDS011;56777;55.930;37.524;2024-01-25T00:28:30;14.65;;;5.93;;
69565;SDS011;56777;55.930;37.524;2024-01-25T00:30:56;16.25;;;5.32;;
69565;SDS011;56777;55.930;37.524;2024-01-25T00:33:22;13.75;;;5.63;;
69565;SDS011;56777;55.930;37.524;2024-01-25T00:35:47;13.90;;;6.00;;
69565;SDS011;56777;55.930;37.524;2024-01-25T00:38:13;13.95;;;5.55;;
69565;SDS011;56777;55.930;37.524;2024-01-25T00:40:39;16.15;;;5.70;;
69565;SDS011;56777;55.930;37.524;2024-01-25T00:43:05;15.52;;;6.50;;
69565;SDS011;56777;55.930;37.524;2024-01-25T00:45:31;22.02;;;7.28;;
69565;SDS011;56777;55.930;37.524;2024-01-25T00:47:57;21.33;;;5.80;;
69565;SDS011;56777;55.930;37.524;2024-01-25T00:50:22;14.30;;;5.47;;
69565;SDS011;56777;55.930;37.524;2024-01-25T00:52:50;15.77;;;6.22;;
69565;SDS011;56777;55.930;37.524;2024-01-25T00:55:16;21.40;;;6.60;;
69565;SDS011;56777;55.930;37.524;2024-01-25T00:57:42;12.35;;;4.75;;
69565;SDS011;56777;55.930;37.524;2024-01-25T01:00:09;15.25;;;6.18;;
69565;SDS011;56777;55.930;37.524;2024-01-25T01:02:36;14.90;;;5.47;;
69565;SDS011;56777;55.930;37.524;2024-01-25T01:05:05;14.95;;;5.72;;
69565;SDS011;56777;55.930;37.524;2024-01-25T01:07:31;14.05;;;5.25;;
69565;SDS011;56777;55.930;37.524;2024-01-25T01:09:57;15.70;;;6.28;;
69565;SDS011;56777;55.930;37.524;2024-01-25T01:12:23;13.65;;;5.95;;
69565;SDS011;56777;55.930;37.524;2024-01-25T01:14:48;13.90;;;5.90;;
69565;SDS011;56777;55.930;37.524;2024-01-25T01:17:14;16.25;;;6.85;;
69565;SDS011;56777;55.930;37.524;2024-01-25T01:19:40;15.93;;;6.60;;
69565;SDS011;56777;55.930;37.524;2024-01-25T01:22:05;18.55;;;6.25;;
69565;SDS011;56777;55.930;37.524;2024-01-25T01:24:31;18.80;;;5.95;;
69565;SDS011;56777;55.930;37.524;2024-01-25T01:26:57;20.50;;;6.75;;
69565;SDS011;56777;55.930;37.524;2024-01-25T01:29:23;15.98;;;6.45;;
69565;SDS011;56777;55.930;37.524;2024-01-25T01:31:49;17.20;;;6.10;;
69565;SDS011;56777;55.930;37.524;2024-01-25T01:34:14;17.63;;;6.90;;
69565;SDS011;56777;55.930;37.524;2024-01-25T01:36:42;18.95;;;6.57;;
69565;SDS011;56777;55.930;37.524;2024-01-25T01:39:08;20.17;;;6.38;;
69565;SDS011;56777;55.930;37.524;2024-01-25T01:41:34;17.15;;;6.22;;
69565;SDS011;56777;55.930;37.524;2024-01-25T01:43:59;19.92;;;6.63;;
69565;SDS011;56777;55.930;37.524;2024-01-25T01:46:35;19.08;;;6.80;;
69565;SDS011;56777;55.930;37.524;2024-01-25T01:49:11;25.02;;;7.25;;
69565;SDS011;56777;55.930;37.524;2024-01-25T01:51:39;19.83;;;7.47;;
69565;SDS011;56777;55.930;37.524;2024-01-25T01:54:06;20.55;;;6.70;;
69565;SDS011;56777;55.930;37.524;2024-01-25T01:56:32;22.40;;;7.18;;
69565;SDS011;56777;55.930;37.524;2024-01-25T01:59:02;24.33;;;6.85;;
69565;SDS011;56777;55.930;37.524;2024-01-25T02:01:30;31.05;;;7.47;;
69565;SDS011;56777;55.930;37.524;2024-01-25T02:03:56;29.10;;;7.82;;
69565;SDS011;56777;55.930;37.524;2024-01-25T02:06:23;19.33;;;7.13;;
69565;SDS011;56777;55.930;37.524;2024-01-25T02:08:49;21.05;;;7.85;;
69565;SDS011;56777;55.930;37.524;2024-01-25T02:11:16;28.27;;;7.97;;
69565;SDS011;56777;55.930;37.524;2024-01-25T02:13:42;24.60;;;7.75;;
69565;SDS011;56777;55.930;37.524;2024-01-25T02:16:08;21.08;;;6.93;;
69565;SDS011;56777;55.930;37.524;2024-01-25T02:18:34;20.20;;;7.18;;
69565;SDS011;56777;55.930;37.524;2024-01-25T02:21:00;18.33;;;6.43;;
69565;SDS011;56777;55.930;37.524;2024-01-25T02:23:26;18.92;;;6.90;;
69565;SDS011;56777;55.930;37.524;2024-01-25T02:25:52;18.50;;;7.32;;
69565;SDS011;56777;55.930;37.524;2024-01-25T02:28:17;18.60;;;6.40;;
69565;SDS011;56777;55.930;37.524;2024-01-25T02:30:43;16.15;;;6.32;;
69565;SDS011;56777;55.930;37.524;2024-01-25T02:33:09;21.35;;;7.45;;
69565;SDS011;56777;55.930;37.524;2024-01-25T02:35:34;19.65;;;7.30;;
69565;SDS011;56777;55.930;37.524;2024-01-25T02:38:00;18.08;;;7.00;;
69565;SDS011;56777;55.930;37.524;2024-01-25T02:40:25;20.70;;;7.43;;
69565;SDS011;56777;55.930;37.524;2024-01-25T02:42:51;20.55;;;7.30;;
69565;SDS011;56777;55.930;37.524;2024-01-25T02:45:16;20.73;;;7.15;;
69565;SDS011;56777;55.930;37.524;2024-01-25T02:47:42;21.83;;;7.57;;
69565;SDS011;56777;55.930;37.524;2024-01-25T02:50:08;21.83;;;7.70;;
69565;SDS011;56777;55.930;37.524;2024-01-25T02:52:34;23.50;;;8.00;;
69565;SDS011;56777;55.930;37.524;2024-01-25T02:54:59;23.40;;;9.27;;
69565;SDS011;56777;55.930;37.524;2024-01-25T02:57:25;25.30;;;8.90;;
69565;SDS011;56777;55.930;37.524;2024-01-25T02:59:51;25.58;;;8.45;;
69565;SDS011;56777;55.930;37.524;2024-01-25T03:02:17;24.63;;;8.27;;
69565;SDS011;56777;55.930;37.524;2024-01-25T03:04:44;20.80;;;8.50;;
69565;SDS011;56777;55.930;37.524;2024-01-25T03:07:11;22.70;;;8.07;;
69565;SDS011;56777;55.930;37.524;2024-01-25T03:09:36;29.30;;;9.90;;
69565;SDS011;56777;55.930;37.524;2024-01-25T03:12:02;22.65;;;8.40;;
69565;SDS011;56777;55.930;37.524;2024-01-25T03:14:28;25.65;;;9.05;;
69565;SDS011;56777;55.930;37.524;2024-01-25T03:16:53;27.25;;;8.93;;
69565;SDS011;56777;55.930;37.524;2024-01-25T03:19:19;27.38;;;9.40;;
69565;SDS011;56777;55.930;37.524;2024-01-25T03:21:45;22.55;;;8.93;;
69565;SDS011;56777;55.930;37.524;2024-01-25T03:24:10;26.35;;;10.07;;
69565;SDS011;56777;55.930;37.524;2024-01-25T03:26:36;27.52;;;9.40;;
69565;SDS011;56777;55.930;37.524;2024-01-25T03:29:01;27.73;;;10.00;;
69565;SDS011;56777;55.930;37.524;2024-01-25T03:31:27;29.58;;;11.02;;
69565;SDS011;56777;55.930;37.524;2024-01-25T03:33:53;26.25;;;9.90;;
69565;SDS011;56777;55.930;37.524;2024-01-25T03:36:18;27.10;;;10.35;;
69565;SDS011;56777;55.930;37.524;2024-01-25T03:38:44;29.95;;;11.18;;
69565;SDS011;56777;55.930;37.524;2024-01-25T03:41:09;30.65;;;10.35;;
69565;SDS011;56777;55.930;37.524;2024-01-25T03:43:35;24.50;;;9.60;;
69565;SDS011;56777;55.930;37.524;2024-01-25T03:46:01;27.35;;;9.85;;
69565;SDS011;56777;55.930;37.524;2024-01-25T03:48:28;29.85;;;9.32;;
69565;SDS011;56777;55.930;37.524;2024-01-25T03:50:54;31.60;;;10.85;;
69565;SDS011;56777;55.930;37.524;2024-01-25T03:53:22;33.17;;;10.10;;
69565;SDS011;56777;55.930;37.524;2024-01-25T03:55:48;31.63;;;10.32;;
69565;SDS011;56777;55.930;37.524;2024-01-25T03:58:14;33.65;;;10.45;;
69565;SDS011;56777;55.930;37.524;2024-01-25T04:00:43;28.75;;;10.30;;
69565;SDS011;56777;55.930;37.524;2024-01-25T04:03:08;33.42;;;10.35;;
69565;SDS011;56777;55.930;37.524;2024-01-25T04:05:35;31.13;;;10.77;;
69565;SDS011;56777;55.930;37.524;2024-01-25T04:08:01;31.60;;;10.48;;
69565;SDS011;56777;55.930;37.524;2024-01-25T04:10:26;30.38;;;10.10;;
69565;SDS011;56777;55.930;37.524;2024-01-25T04:12:52;28.58;;;9.90;;
69565;SDS011;56777;55.930;37.524;2024-01-25T04:15:17;30.77;;;10.55;;
69565;SDS011;56777;55.930;37.524;2024-01-25T04:17:43;29.05;;;9.90;;
69565;SDS011;56777;55.930;37.524;2024-01-25T04:20:09;28.48;;;10.07;;
69565;SDS011;56777;55.930;37.524;2024-01-25T04:22:35;30.92;;;10.10;;
69565;SDS011;56777;55.930;37.524;2024-01-25T04:25:01;32.60;;;10.32;;
69565;SDS011;56777;55.930;37.524;2024-01-25T04:27:27;31.67;;;10.52;;
69565;SDS011;56777;55.930;37.524;2024-01-25T04:29:53;31.45;;;10.23;;
69565;SDS011;56777;55.930;37.524;2024-01-25T04:32:19;30.40;;;10.27;;
69565;SDS011;56777;55.930;37.524;2024-01-25T04:34:45;33.00;;;10.55;;
69565;SDS011;56777;55.930;37.524;2024-01-25T04:37:12;27.40;;;9.60;;
69565;SDS011;56777;55.930;37.524;2024-01-25T04:39:38;31.90;;;11.00;;
69565;SDS011;56777;55.930;37.524;2024-01-25T04:42:04;32.22;;;11.07;;
69565;SDS011;56777;55.930;37.524;2024-01-25T04:44:30;26.88;;;9.95;;
69565;SDS011;56777;55.930;37.524;2024-01-25T04:46:56;34.47;;;11.50;;
69565;SDS011;56777;55.930;37.524;2024-01-25T04:49:21;31.52;;;10.05;;
69565;SDS011;56777;55.930;37.524;2024-01-25T04:51:47;36.88;;;11.88;;
69565;SDS011;56777;55.930;37.524;2024-01-25T04:54:13;38.30;;;12.25;;
69565;SDS011;56777;55.930;37.524;2024-01-25T04:56:40;37.78;;;12.80;;
69565;SDS011;56777;55.930;37.524;2024-01-25T04:59:06;32.28;;;12.70;;
69565;SDS011;56777;55.930;37.524;2024-01-25T05:01:32;33.10;;;11.70;;
69565;SDS011;56777;55.930;37.524;2024-01-25T05:03:58;34.53;;;11.25;;
69565;SDS011;56777;55.930;37.524;2024-01-25T05:06:23;39.10;;;11.80;;
69565;SDS011;56777;55.930;37.524;2024-01-25T05:08:49;36.63;;;12.80;;
69565;SDS011;56777;55.930;37.524;2024-01-25T05:11:14;36.08;;;11.73;;
69565;SDS011;56777;55.930;37.524;2024-01-25T05:13:40;36.10;;;13.35;;
69565;SDS011;56777;55.930;37.524;2024-01-25T05:16:06;33.50;;;11.60;;
69565;SDS011;56777;55.930;37.524;2024-01-25T05:18:31;36.38;;;11.65;;
69565;SDS011;56777;55.930;37.524;2024-01-25T05:20:57;37.53;;;12.18;;
69565;SDS011;56777;55.930;37.524;2024-01-25T05:23:23;32.42;;;11.52;;
69565;SDS011;56777;55.930;37.524;2024-01-25T05:25:48;38.53;;;12.85;;
69565;SDS011;56777;55.930;37.524;2024-01-25T05:28:14;34.80;;;11.40;;
69565;SDS011;56777;55.930;37.524;2024-01-25T05:30:40;31.00;;;12.02;;
69565;SDS011;56777;55.930;37.524;2024-01-25T05:33:05;39.88;;;13.27;;
69565;SDS011;56777;55.930;37.524;2024-01-25T05:35:31;36.83;;;11.70;;
69565;SDS011;56777;55.930;37.524;2024-01-25T05:37:59;37.25;;;12.23;;
69565;SDS011;56777;55.930;37.524;2024-01-25T05:40:25;46.00;;;13.77;;
69565;SDS011;56777;55.930;37.524;2024-01-25T05:42:50;44.58;;;12.57;;
69565;SDS011;56777;55.930;37.524;2024-01-25T05:45:16;41.00;;;13.13;;
69565;SDS011;56777;55.930;37.524;2024-01-25T05:47:45;39.72;;;12.88;;
69565;SDS011;56777;55.930;37.524;2024-01-25T05:50:10;40.85;;;12.57;;
69565;SDS011;56777;55.930;37.524;2024-01-25T05:52:36;38.80;;;13.25;;
69565;SDS011;56777;55.930;37.524;2024-01-25T05:55:04;43.50;;;14.20;;
69565;SDS011;56777;55.930;37.524;2024-01-25T05:57:31;37.55;;;13.15;;
69565;SDS011;56777;55.930;37.524;2024-01-25T05:59:57;47.33;;;13.88;;
69565;SDS011;56777;55.930;37.524;2024-01-25T06:02:22;48.05;;;13.65;;
69565;SDS011;56777;55.930;37.524;2024-01-25T06:04:48;46.85;;;13.52;;
69565;SDS011;56777;55.930;37.524;2024-01-25T06:07:14;42.25;;;13.30;;
69565;SDS011;56777;55.930;37.524;2024-01-25T06:09:39;50.10;;;15.57;;
69565;SDS011;56777;55.930;37.524;2024-01-25T06:12:05;47.78;;;14.57;;
69565;SDS011;56777;55.930;37.524;2024-01-25T06:14:31;51.83;;;15.50;;
69565;SDS011;56777;55.930;37.524;2024-01-25T06:16:56;52.80;;;15.85;;
69565;SDS011;56777;55.930;37.524;2024-01-25T06:19:22;42.13;;;13.80;;
69565;SDS011;56777;55.930;37.524;2024-01-25T06:21:48;52.25;;;15.25;;
69565;SDS011;56777;55.930;37.524;2024-01-25T06:24:13;58.13;;;15.20;;
69565;SDS011;56777;55.930;37.524;2024-01-25T06:26:39;62.08;;;16.75;;
69565;SDS011;56777;55.930;37.524;2024-01-25T06:29:04;63.22;;;16.58;;
69565;SDS011;56777;55.930;37.524;2024-01-25T06:31:30;64.22;;;18.40;;
69565;SDS011;56777;55.930;37.524;2024-01-25T06:33:56;72.35;;;18.65;;
69565;SDS011;56777;55.930;37.524;2024-01-25T06:36:22;72.88;;;17.88;;
69565;SDS011;56777;55.930;37.524;2024-01-25T06:38:47;72.93;;;17.83;;
69565;SDS011;56777;55.930;37.524;2024-01-25T06:41:13;79.75;;;19.70;;
69565;SDS011;56777;55.930;37.524;2024-01-25T06:43:40;91.15;;;20.50;;
69565;SDS011;56777;55.930;37.524;2024-01-25T06:46:06;96.38;;;21.33;;
69565;SDS011;56777;55.930;37.524;2024-01-25T06:48:32;87.90;;;20.17;;
69565;SDS011;56777;55.930;37.524;2024-01-25T06:50:58;93.65;;;22.83;;
69565;SDS011;56777;55.930;37.524;2024-01-25T06:53:23;94.88;;;22.10;;
69565;SDS011;56777;55.930;37.524;2024-01-25T06:55:49;85.93;;;20.83;;
69565;SDS011;56777;55.930;37.524;2024-01-25T06:58:14;96.50;;;22.38;;
69565;SDS011;56777;55.930;37.524;2024-01-25T07:00:40;114.80;;;23.05;;
69565;SDS011;56777;55.930;37.524;2024-01-25T07:03:07;115.22;;;23.38;;
69565;SDS011;56777;55.930;37.524;2024-01-25T07:05:34;120.35;;;26.77;;
69565;SDS011;56777;55.930;37.524;2024-01-25T07:08:01;99.97;;;23.80;;
69565;SDS011;56777;55.930;37.524;2024-01-25T07:10:27;138.00;;;26.50;;
69565;SDS011;56777;55.930;37.524;2024-01-25T07:12:52;108.93;;;25.25;;
69565;SDS011;56777;55.930;37.524;2024-01-25T07:15:19;140.77;;;27.25;;
69565;SDS011;56777;55.930;37.524;2024-01-25T07:17:45;106.75;;;25.80;;
69565;SDS011;56777;55.930;37.524;2024-01-25T07:20:10;108.40;;;24.23;;
69565;SDS011;56777;55.930;37.524;2024-01-25T07:22:36;125.07;;;22.67;;
69565;SDS011;56777;55.930;37.524;2024-01-25T07:25:02;83.60;;;20.42;;
69565;SDS011;56777;55.930;37.524;2024-01-25T07:27:27;116.07;;;24.40;;
69565;SDS011;56777;55.930;37.524;2024-01-25T07:29:53;96.88;;;24.65;;
69565;SDS011;56777;55.930;37.524;2024-01-25T07:32:19;105.18;;;26.27;;
69565;SDS011;56777;55.930;37.524;2024-01-25T07:34:45;105.68;;;24.67;;
69565;SDS011;56777;55.930;37.524;2024-01-25T07:37:11;108.53;;;24.95;;
69565;SDS011;56777;55.930;37.524;2024-01-25T07:39:37;118.82;;;25.65;;
69565;SDS011;56777;55.930;37.524;2024-01-25T07:42:03;91.38;;;24.08;;
69565;SDS011;56777;55.930;37.524;2024-01-25T07:44:28;96.63;;;25.30;;
69565;SDS011;56777;55.930;37.524;2024-01-25T07:46:54;91.57;;;22.50;;
69565;SDS011;56777;55.930;37.524;2024-01-25T07:49:19;104.78;;;25.35;;
69565;SDS011;56777;55.930;37.524;2024-01-25T07:51:45;101.30;;;25.63;;
69565;SDS011;56777;55.930;37.524;2024-01-25T07:54:12;98.93;;;23.85;;
69565;SDS011;56777;55.930;37.524;2024-01-25T07:56:38;103.22;;;25.05;;
69565;SDS011;56777;55.930;37.524;2024-01-25T07:59:04;86.72;;;22.58;;
69565;SDS011;56777;55.930;37.524;2024-01-25T08:01:29;88.28;;;22.33;;
69565;SDS011;56777;55.930;37.524;2024-01-25T08:03:55;85.50;;;21.20;;
69565;SDS011;56777;55.930;37.524;2024-01-25T08:06:21;81.20;;;22.63;;
69565;SDS011;56777;55.930;37.524;2024-01-25T08:08:47;82.22;;;22.75;;
69565;SDS011;56777;55.930;37.524;2024-01-25T08:11:13;90.95;;;22.58;;
69565;SDS011;56777;55.930;37.524;2024-01-25T08:13:42;90.47;;;23.70;;
69565;SDS011;56777;55.930;37.524;2024-01-25T08:16:10;82.88;;;22.20;;
69565;SDS011;56777;55.930;37.524;2024-01-25T08:18:37;80.60;;;21.60;;
69565;SDS011;56777;55.930;37.524;2024-01-25T08:21:03;81.60;;;21.85;;
69565;SDS011;56777;55.930;37.524;2024-01-25T08:23:28;77.78;;;21.25;;
69565;SDS011;56777;55.930;37.524;2024-01-25T08:25:54;73.47;;;19.95;;
69565;SDS011;56777;55.930;37.524;2024-01-25T08:28:19;81.72;;;23.23;;
69565;SDS011;56777;55.930;37.524;2024-01-25T08:30:46;81.45;;;22.73;;
69565;SDS011;56777;55.930;37.524;2024-01-25T08:33:12;85.13;;;23.40;;
69565;SDS011;56777;55.930;37.524;2024-01-25T08:35:38;86.30;;;25.33;;
69565;SDS011;56777;55.930;37.524;2024-01-25T08:38:06;81.65;;;24.33;;
69565;SDS011;56777;55.930;37.524;2024-01-25T08:40:32;65.05;;;18.40;;
69565;SDS011;56777;55.930;37.524;2024-01-25T08:42:58;72.15;;;21.13;;
69565;SDS011;56777;55.930;37.524;2024-01-25T08:45:23;71.95;;;19.63;;
69565;SDS011;56777;55.930;37.524;2024-01-25T08:47:49;75.45;;;21.63;;
69565;SDS011;56777;55.930;37.524;2024-01-25T08:50:16;75.57;;;23.10;;
69565;SDS011;56777;55.930;37.524;2024-01-25T08:52:41;69.90;;;20.40;;
69565;SDS011;56777;55.930;37.524;2024-01-25T08:55:07;71.07;;;20.83;;
69565;SDS011;56777;55.930;37.524;2024-01-25T08:57:34;62.67;;;19.05;;
69565;SDS011;56777;55.930;37.524;2024-01-25T09:00:00;65.20;;;19.50;;
69565;SDS011;56777;55.930;37.524;2024-01-25T09:19:15;68.18;;;20.38;;
69565;SDS011;56777;55.930;37.524;2024-01-25T09:21:40;71.05;;;20.83;;
69565;SDS011;56777;55.930;37.524;2024-01-25T09:24:07;66.43;;;19.25;;
69565;SDS011;56777;55.930;37.524;2024-01-25T09:26:33;55.88;;;17.70;;
69565;SDS011;56777;55.930;37.524;2024-01-25T09:28:59;61.55;;;18.58;;
69565;SDS011;56777;55.930;37.524;2024-01-25T09:46:29;64.05;;;20.55;;
69565;SDS011;56777;55.930;37.524;2024-01-25T09:48:55;57.20;;;18.35;;
69565;SDS011;56777;55.930;37.524;2024-01-25T09:51:21;52.28;;;17.40;;
69565;SDS011;56777;55.930;37.524;2024-01-25T09:53:48;58.83;;;17.80;;
69565;SDS011;56777;55.930;37.524;2024-01-25T09:56:14;62.45;;;17.75;;
69565;SDS011;56777;55.930;37.524;2024-01-25T09:58:44;60.47;;;18.13;;
69565;SDS011;56777;55.930;37.524;2024-01-25T10:01:13;58.38;;;18.58;;
69565;SDS011;56777;55.930;37.524;2024-01-25T10:03:43;62.33;;;17.73;;
69565;SDS011;56777;55.930;37.524;2024-01-25T10:06:10;58.63;;;19.42;;
69565;SDS011;56777;55.930;37.524;2024-01-25T10:08:36;58.85;;;18.75;;
69565;SDS011;56777;55.930;37.524;2024-01-25T10:11:02;56.17;;;17.75;;
69565;SDS011;56777;55.930;37.524;2024-01-25T10:13:28;62.63;;;18.67;;
69565;SDS011;56777;55.930;37.524;2024-01-25T10:15:54;54.50;;;17.58;;
69565;SDS011;56777;55.930;37.524;2024-01-25T10:18:22;55.22;;;17.38;;
69565;SDS011;56777;55.930;37.524;2024-01-25T10:20:48;51.70;;;17.60;;
69565;SDS011;56777;55.930;37.524;2024-01-25T10:23:13;56.28;;;18.75;;
69565;SDS011;56777;55.930;37.524;2024-01-25T10:25:39;60.47;;;17.92;;
69565;SDS011;56777;55.930;37.524;2024-01-25T10:28:05;51.72;;;17.90;;
69565;SDS011;56777;55.930;37.524;2024-01-25T10:30:32;53.13;;;16.77;;
69565;SDS011;56777;55.930;37.524;2024-01-25T10:32:58;53.58;;;17.45;;
69565;SDS011;56777;55.930;37.524;2024-01-25T10:35:28;51.97;;;16.10;;
69565;SDS011;56777;55.930;37.524;2024-01-25T10:37:54;54.72;;;16.85;;
69565;SDS011;56777;55.930;37.524;2024-01-25T10:40:20;62.00;;;16.63;;
69565;SDS011;56777;55.930;37.524;2024-01-25T10:42:47;54.47;;;16.63;;
69565;SDS011;56777;55.930;37.524;2024-01-25T10:45:13;51.00;;;15.38;;
69565;SDS011;56777;55.930;37.524;2024-01-25T10:47:39;56.95;;;15.38;;
69565;SDS011;56777;55.930;37.524;2024-01-25T10:50:12;57.25;;;17.13;;
69565;SDS011;56777;55.930;37.524;2024-01-25T10:52:39;52.47;;;16.92;;
69565;SDS011;56777;55.930;37.524;2024-01-25T10:55:06;48.50;;;15.93;;
69565;SDS011;56777;55.930;37.524;2024-01-25T11:00:09;51.65;;;15.98;;
69565;SDS011;56777;55.930;37.524;2024-01-25T11:02:36;54.58;;;16.63;;
69565;SDS011;56777;55.930;37.524;2024-01-25T11:05:12;56.65;;;17.15;;
69565;SDS011;56777;55.930;37.524;2024-01-25T11:07:45;51.42;;;16.70;;
69565;SDS011;56777;55.930;37.524;2024-01-25T11:12:50;53.17;;;18.35;;
69565;SDS011;56777;55.930;37.524;2024-01-25T11:17:55;52.70;;;16.70;;
69565;SDS011;56777;55.930;37.524;2024-01-25T11:20:26;54.42;;;16.35;;
69565;SDS011;56777;55.930;37.524;2024-01-25T11:23:01;54.22;;;16.60;;
69565;SDS011;56777;55.930;37.524;2024-01-25T11:25:28;58.15;;;18.35;;
69565;SDS011;56777;55.930;37.524;2024-01-25T11:27:58;64.20;;;19.15;;
69565;SDS011;56777;55.930;37.524;2024-01-25T11:30:26;56.65;;;19.38;;
69565;SDS011;56777;55.930;37.524;2024-01-25T11:32:52;57.33;;;19.15;;
69565;SDS011;56777;55.930;37.524;2024-01-25T11:35:17;59.15;;;18.70;;
69565;SDS011;56777;55.930;37.524;2024-01-25T11:37:46;59.75;;;19.40;;
69565;SDS011;56777;55.930;37.524;2024-01-25T11:40:13;58.40;;;19.67;;
69565;SDS011;56777;55.930;37.524;2024-01-25T11:42:40;59.60;;;18.75;;
69565;SDS011;56777;55.930;37.524;2024-01-25T11:45:08;54.70;;;18.13;;
69565;SDS011;56777;55.930;37.524;2024-01-25T11:47:36;57.55;;;18.63;;
69565;SDS011;56777;55.930;37.524;2024-01-25T11:50:02;57.40;;;17.67;;
69565;SDS011;56777;55.930;37.524;2024-01-25T11:52:28;60.17;;;20.13;;
69565;SDS011;56777;55.930;37.524;2024-01-25T11:54:57;72.45;;;21.70;;
69565;SDS011;56777;55.930;37.524;2024-01-25T11:57:22;65.18;;;20.60;;
69565;SDS011;56777;55.930;37.524;2024-01-25T11:59:48;64.88;;;20.58;;
69565;SDS011;56777;55.930;37.524;2024-01-25T12:02:14;63.85;;;19.15;;
69565;SDS011;56777;55.930;37.524;2024-01-25T12:04:40;69.78;;;19.98;;
69565;SDS011;56777;55.930;37.524;2024-01-25T12:07:06;67.05;;;19.58;;
69565;SDS011;56777;55.930;37.524;2024-01-25T12:09:32;68.70;;;19.80;;
69565;SDS011;56777;55.930;37.524;2024-01-25T12:12:00;71.13;;;20.88;;
69565;SDS011;56777;55.930;37.524;2024-01-25T12:14:26;67.55;;;21.10;;
69565;SDS011;56777;55.930;37.524;2024-01-25T12:16:54;68.60;;;20.67;;
69565;SDS011;56777;55.930;37.524;2024-01-25T12:19:20;75.93;;;21.48;;
69565;SDS011;56777;55.930;37.524;2024-01-25T12:21:46;75.15;;;22.00;;
69565;SDS011;56777;55.930;37.524;2024-01-25T12:24:12;74.25;;;22.13;;
69565;SDS011;56777;55.930;37.524;2024-01-25T12:26:37;65.03;;;19.60;;
69565;SDS011;56777;55.930;37.524;2024-01-25T12:29:03;69.25;;;21.50;;
69565;SDS011;56777;55.930;37.524;2024-01-25T12:31:30;72.63;;;22.27;;
69565;SDS011;56777;55.930;37.524;2024-01-25T12:33:55;69.63;;;20.60;;
69565;SDS011;56777;55.930;37.524;2024-01-25T12:36:24;68.90;;;20.23;;
69565;SDS011;56777;55.930;37.524;2024-01-25T12:38:50;64.05;;;20.27;;
69565;SDS011;56777;55.930;37.524;2024-01-25T12:41:15;72.55;;;20.75;;
69565;SDS011;56777;55.930;37.524;2024-01-25T12:43:41;70.57;;;20.88;;
69565;SDS011;56777;55.930;37.524;2024-01-25T12:46:07;79.50;;;22.80;;
69565;SDS011;56777;55.930;37.524;2024-01-25T12:48:32;72.10;;;23.08;;
69565;SDS011;56777;55.930;37.524;2024-01-25T12:50:58;74.43;;;22.08;;
69565;SDS011;56777;55.930;37.524;2024-01-25T12:53:23;78.78;;;23.90;;
69565;SDS011;56777;55.930;37.524;2024-01-25T12:55:49;77.50;;;23.20;;
69565;SDS011;56777;55.930;37.524;2024-01-25T12:58:15;83.32;;;25.48;;
69565;SDS011;56777;55.930;37.524;2024-01-25T13:00:40;77.22;;;22.52;;
69565;SDS011;56777;55.930;37.524;2024-01-25T13:03:06;72.82;;;22.75;;
69565;SDS011;56777;55.930;37.524;2024-01-25T13:05:32;74.10;;;21.40;;
69565;SDS011;56777;55.930;37.524;2024-01-25T13:08:01;75.07;;;22.20;;
69565;SDS011;56777;55.930;37.524;2024-01-25T13:10:27;79.97;;;22.35;;
69565;SDS011;56777;55.930;37.524;2024-01-25T13:12:53;72.35;;;21.52;;
69565;SDS011;56777;55.930;37.524;2024-01-25T13:15:19;67.70;;;22.05;;
69565;SDS011;56777;55.930;37.524;2024-01-25T13:17:45;75.00;;;24.23;;
69565;SDS011;56777;55.930;37.524;2024-01-25T13:20:11;69.70;;;20.65;;
69565;SDS011;56777;55.930;37.524;2024-01-25T13:22:37;66.00;;;19.05;;
69565;SDS011;56777;55.930;37.524;2024-01-25T13:25:02;61.03;;;19.92;;
69565;SDS011;56777;55.930;37.524;2024-01-25T13:27:28;67.53;;;20.70;;
69565;SDS011;56777;55.930;37.524;2024-01-25T13:29:54;71.00;;;21.95;;
69565;SDS011;56777;55.930;37.524;2024-01-25T13:32:20;71.75;;;22.52;;
69565;SDS011;56777;55.930;37.524;2024-01-25T13:34:47;80.50;;;22.73;;
69565;SDS011;56777;55.930;37.524;2024-01-25T13:37:13;78.90;;;22.67;;
69565;SDS011;56777;55.930;37.524;2024-01-25T13:39:38;73.22;;;21.55;;
69565;SDS011;56777;55.930;37.524;2024-01-25T13:42:04;61.67;;;20.40;;
69565;SDS011;56777;55.930;37.524;2024-01-25T13:44:29;67.53;;;20.58;;
69565;SDS011;56777;55.930;37.524;2024-01-25T13:46:55;65.13;;;19.40;;
69565;SDS011;56777;55.930;37.524;2024-01-25T13:49:21;67.05;;;20.25;;
69565;SDS011;56777;55.930;37.524;2024-01-25T13:51:47;67.35;;;19.23;;
69565;SDS011;56777;55.930;37.524;2024-01-25T13:54:12;57.15;;;18.27;;
69565;SDS011;56777;55.930;37.524;2024-01-25T13:56:38;70.80;;;20.20;;
69565;SDS011;56777;55.930;37.524;2024-01-25T13:59:05;69.88;;;20.00;;
69565;SDS011;56777;55.930;37.524;2024-01-25T14:01:31;66.68;;;20.85;;
69565;SDS011;56777;55.930;37.524;2024-01-25T14:03:56;58.10;;;18.60;;
69565;SDS011;56777;55.930;37.524;2024-01-25T14:06:22;67.13;;;22.27;;
69565;SDS011;56777;55.930;37.524;2024-01-25T14:08:48;70.65;;;21.73;;
69565;SDS011;56777;55.930;37.524;2024-01-25T14:11:13;58.15;;;18.98;;
69565;SDS011;56777;55.930;37.524;2024-01-25T14:13:40;62.95;;;21.60;;
69565;SDS011;56777;55.930;37.524;2024-01-25T14:16:05;54.83;;;18.15;;
69565;SDS011;56777;55.930;37.524;2024-01-25T14:18:36;53.53;;;18.58;;
69565;SDS011;56777;55.930;37.524;2024-01-25T14:21:02;57.17;;;18.27;;
69565;SDS011;56777;55.930;37.524;2024-01-25T14:23:29;48.53;;;16.23;;
69565;SDS011;56777;55.930;37.524;2024-01-25T14:25:54;52.90;;;16.80;;
69565;SDS011;56777;55.930;37.524;2024-01-25T14:28:20;53.78;;;17.27;;
69565;SDS011;56777;55.930;37.524;2024-01-25T14:30:45;54.80;;;17.13;;
69565;SDS011;56777;55.930;37.524;2024-01-25T14:33:11;42.75;;;14.80;;
69565;SDS011;56777;55.930;37.524;2024-01-25T14:35:37;45.15;;;16.02;;
69565;SDS011;56777;55.930;37.524;2024-01-25T14:38:02;43.90;;;15.48;;
69565;SDS011;56777;55.930;37.524;2024-01-25T14:40:28;53.90;;;16.23;;
69565;SDS011;56777;55.930;37.524;2024-01-25T14:42:54;48.03;;;16.15;;
69565;SDS011;56777;55.930;37.524;2024-01-25T14:45:19;45.10;;;15.60;;